createdAt,value
2022-12-23T00:00:43.254Z,7.90
2022-12-23T00:03:09.972Z,7.90
2022-12-23T00:05:40.722Z,7.90
2022-12-23T00:08:08.360Z,7.90
2022-12-23T00:10:39.303Z,7.90
2022-12-23T00:13:24.430Z,7.90
2022-12-23T00:15:51.079Z,7.90
2022-12-23T00:18:17.764Z,7.90
2022-12-23T00:20:44.428Z,7.80
2022-12-23T00:23:11.125Z,7.80
2022-12-23T00:25:42.439Z,7.80
2022-12-23T00:28:12.164Z,7.80
2022-12-23T00:30:46.946Z,7.70
2022-12-23T00:33:15.575Z,7.70
2022-12-23T00:35:43.619Z,7.70
2022-12-23T00:38:10.334Z,7.70
2022-12-23T00:40:55.971Z,7.70
2022-12-23T00:43:22.784Z,7.70
2022-12-23T00:45:49.543Z,7.80
2022-12-23T00:48:35.226Z,7.80
2022-12-23T00:51:02.270Z,7.80
2022-12-23T00:53:30.003Z,7.90
2022-12-23T00:55:56.672Z,7.80
2022-12-23T00:58:23.354Z,7.80
2022-12-23T01:01:08.643Z,7.90
2022-12-23T01:03:54.123Z,7.90
2022-12-23T01:06:20.749Z,7.90
2022-12-23T01:08:47.396Z,7.90
2022-12-23T01:11:14.130Z,8.00
2022-12-23T01:13:40.821Z,8.10
2022-12-23T01:16:16.873Z,8.10
2022-12-23T01:18:44.953Z,8.10
2022-12-23T01:21:13.895Z,8.10
2022-12-23T01:23:41.012Z,8.10
2022-12-23T01:26:08.360Z,8.10
2022-12-23T01:28:36.168Z,8.10
2022-12-23T01:31:04.852Z,8.00
2022-12-23T01:33:33.003Z,8.00
2022-12-23T01:36:01.672Z,8.00
2022-12-23T01:38:28.883Z,8.00
2022-12-23T01:40:56.091Z,8.00
2022-12-23T01:43:23.222Z,8.10
2022-12-23T01:45:49.971Z,8.10
2022-12-23T01:48:26.966Z,8.10
2022-12-23T01:51:02.755Z,8.10
2022-12-23T01:53:38.672Z,8.10
2022-12-23T01:56:38.772Z,8.10
2022-12-23T01:59:09.982Z,8.10
2022-12-23T02:01:55.260Z,8.20
2022-12-23T02:04:24.846Z,8.20
2022-12-23T02:07:10.808Z,8.30
2022-12-23T02:09:39.725Z,8.30
2022-12-23T02:12:27.957Z,8.30
2022-12-23T02:15:44.288Z,8.30
2022-12-23T02:18:40.548Z,8.20
2022-12-23T02:21:56.396Z,8.30
2022-12-23T02:24:53.798Z,8.30
2022-12-23T02:27:49.141Z,8.30
2022-12-23T02:31:00.233Z,8.40
2022-12-23T02:33:42.486Z,8.40
2022-12-23T02:36:27.968Z,8.50
2022-12-23T02:39:06.846Z,8.60
2022-12-23T02:41:58.494Z,8.60
2022-12-23T02:44:43.564Z,8.50
2022-12-23T02:47:20.564Z,8.50
2022-12-23T02:50:01.745Z,8.60
2022-12-23T02:52:34.592Z,8.60
2022-12-23T02:55:06.454Z,8.60
2022-12-23T02:57:37.089Z,8.70
2022-12-23T03:00:05.575Z,8.70
2022-12-23T03:02:38.477Z,8.70
2022-12-23T03:05:06.260Z,8.80
2022-12-23T03:07:38.802Z,8.80
2022-12-23T03:10:20.249Z,8.80
2022-12-23T03:13:08.547Z,8.80
2022-12-23T03:15:41.146Z,8.90
2022-12-23T03:18:19.751Z,8.90
2022-12-23T03:20:56.966Z,8.90
2022-12-23T03:23:37.343Z,9.00
2022-12-23T03:26:16.877Z,9.00
2022-12-23T03:28:51.301Z,9.00
2022-12-23T03:31:24.511Z,9.00
2022-12-23T03:33:59.438Z,9.00
2022-12-23T03:36:31.797Z,9.10
2022-12-23T03:38:58.997Z,9.10
2022-12-23T03:41:33.385Z,9.10
2022-12-23T03:44:21.246Z,9.10
2022-12-23T03:46:56.054Z,9.20
2022-12-23T03:49:49.018Z,9.10
2022-12-23T03:52:21.630Z,9.10
2022-12-23T03:55:02.144Z,9.10
2022-12-23T03:57:41.565Z,9.10
2022-12-23T04:00:08.938Z,9.20
2022-12-23T04:02:59.344Z,9.20
2022-12-23T04:05:31.678Z,9.20
2022-12-23T04:08:16.589Z,9.20
2022-12-23T04:10:43.586Z,9.20
2022-12-23T04:13:10.339Z,9.20
2022-12-23T04:15:41.407Z,9.20
2022-12-23T04:18:10.424Z,9.20
2022-12-23T04:20:37.416Z,9.20
2022-12-23T04:23:04.595Z,9.30
2022-12-23T04:25:31.225Z,9.30
2022-12-23T04:27:57.871Z,9.20
2022-12-23T04:30:28.090Z,9.20
2022-12-23T04:33:00.204Z,9.20
2022-12-23T04:35:26.876Z,9.20
2022-12-23T04:37:53.517Z,9.20
2022-12-23T04:40:20.202Z,9.30
2022-12-23T04:42:46.847Z,9.30
2022-12-23T04:45:13.608Z,9.30
2022-12-23T04:47:40.677Z,9.30
2022-12-23T04:50:08.397Z,9.40
2022-12-23T04:52:35.093Z,9.40
2022-12-23T04:55:01.740Z,9.50
2022-12-23T04:57:28.504Z,9.50
2022-12-23T04:59:55.183Z,9.50
2022-12-23T05:02:21.890Z,9.50
2022-12-23T05:04:48.566Z,9.50
2022-12-23T05:07:15.171Z,9.50
2022-12-23T05:09:41.803Z,9.50
2022-12-23T05:12:08.451Z,9.50
2022-12-23T05:14:35.079Z,9.50
2022-12-23T05:17:07.157Z,9.60
2022-12-23T05:19:34.530Z,9.60
2022-12-23T05:22:01.193Z,9.60
2022-12-23T05:24:27.812Z,9.50
2022-12-23T05:26:59.727Z,9.60
2022-12-23T05:29:27.124Z,9.60
2022-12-23T05:31:53.872Z,9.60
2022-12-23T05:34:20.774Z,9.60
2022-12-23T05:36:47.485Z,9.70
2022-12-23T05:39:14.195Z,9.70
2022-12-23T05:41:40.881Z,9.70
2022-12-23T05:44:10.768Z,9.70
2022-12-23T05:46:37.577Z,9.70
2022-12-23T05:49:04.336Z,9.70
2022-12-23T05:51:31.116Z,9.70
2022-12-23T05:53:57.824Z,9.70
2022-12-23T05:56:24.495Z,9.70
2022-12-23T05:58:51.202Z,9.70
2022-12-23T06:01:18.547Z,9.70
2022-12-23T06:03:45.265Z,9.70
2022-12-23T06:06:11.949Z,9.70
2022-12-23T06:08:38.559Z,9.70
2022-12-23T06:11:05.843Z,9.70
2022-12-23T06:13:32.487Z,9.70
2022-12-23T06:15:59.441Z,9.70
2022-12-23T06:18:26.070Z,9.60
2022-12-23T06:20:52.685Z,9.60
2022-12-23T06:23:19.326Z,9.60
2022-12-23T06:25:45.958Z,9.60
2022-12-23T06:28:12.611Z,9.60
2022-12-23T06:30:39.292Z,9.60
2022-12-23T06:33:05.982Z,9.60
2022-12-23T06:35:32.602Z,9.60
2022-12-23T06:37:59.349Z,9.70
2022-12-23T06:40:26.011Z,9.70
2022-12-23T06:42:52.716Z,9.70
2022-12-23T06:45:19.380Z,9.70
2022-12-23T06:47:46.000Z,9.70
2022-12-23T06:50:12.671Z,9.70
2022-12-23T06:52:39.305Z,9.70
2022-12-23T06:55:06.400Z,9.70
2022-12-23T06:57:33.154Z,9.70
2022-12-23T06:59:59.786Z,9.70
2022-12-23T07:02:26.499Z,9.70
2022-12-23T07:04:53.280Z,9.70
2022-12-23T07:07:20.030Z,9.60
2022-12-23T07:09:46.711Z,9.60
2022-12-23T07:12:13.385Z,9.70
2022-12-23T07:14:40.037Z,9.70
2022-12-23T07:17:06.762Z,9.70
2022-12-23T07:19:34.091Z,9.70
2022-12-23T07:22:00.793Z,9.70
2022-12-23T07:24:27.442Z,9.70
2022-12-23T07:26:55.965Z,9.70
2022-12-23T07:29:22.708Z,9.70
2022-12-23T07:31:49.486Z,9.70
2022-12-23T07:34:16.255Z,9.70
2022-12-23T07:36:42.926Z,9.70
2022-12-23T07:39:09.575Z,9.70
2022-12-23T07:41:36.335Z,9.70
2022-12-23T07:44:03.005Z,9.70
2022-12-23T07:46:29.786Z,9.70
2022-12-23T07:48:56.480Z,9.70
2022-12-23T07:51:23.111Z,9.60
2022-12-23T07:53:50.686Z,9.60
2022-12-23T07:56:18.288Z,9.60
2022-12-23T07:58:49.489Z,9.60
2022-12-23T08:01:16.496Z,9.60
2022-12-23T08:03:43.352Z,9.60
2022-12-23T08:06:15.218Z,9.60
2022-12-23T08:08:45.053Z,9.70
2022-12-23T08:11:13.103Z,9.70
2022-12-23T08:13:43.039Z,9.70
2022-12-23T08:16:10.482Z,9.80
2022-12-23T08:18:39.909Z,10.00
2022-12-23T08:21:19.007Z,10.00
2022-12-23T08:23:47.342Z,10.00
2022-12-23T08:26:16.680Z,10.00
2022-12-23T08:28:44.788Z,9.90
2022-12-23T08:31:19.484Z,10.00
2022-12-23T08:33:48.813Z,10.00
2022-12-23T08:36:22.690Z,10.10
2022-12-23T08:38:50.485Z,10.10
2022-12-23T08:41:20.457Z,10.10
2022-12-23T08:43:48.387Z,10.20
2022-12-23T08:46:15.073Z,10.20
2022-12-23T08:48:48.709Z,10.30
2022-12-23T08:51:17.286Z,10.30
2022-12-23T08:53:44.420Z,10.30
2022-12-23T08:56:17.209Z,10.40
2022-12-23T08:58:45.961Z,10.40
2022-12-23T09:01:15.657Z,10.50
2022-12-23T09:03:43.243Z,10.50
2022-12-23T09:06:13.125Z,10.50
2022-12-23T09:08:40.665Z,10.60
2022-12-23T09:11:11.997Z,10.60
2022-12-23T09:13:38.768Z,10.60
2022-12-23T09:16:06.583Z,10.70
2022-12-23T09:18:33.986Z,10.70
2022-12-23T09:21:09.829Z,10.80
2022-12-23T09:23:36.897Z,10.80
2022-12-23T09:26:08.512Z,10.90
2022-12-23T09:28:35.352Z,10.90
2022-12-23T09:31:09.468Z,11.00
2022-12-23T09:33:36.750Z,11.00
2022-12-23T09:36:04.187Z,11.00
2022-12-23T09:38:31.623Z,11.00
2022-12-23T09:41:20.047Z,11.00
2022-12-23T09:43:49.410Z,11.00
2022-12-23T09:46:22.854Z,11.00
2022-12-23T09:49:06.241Z,10.90
2022-12-23T09:51:34.560Z,10.90
2022-12-23T09:54:17.209Z,10.90
2022-12-23T09:56:58.191Z,10.80
2022-12-23T10:00:04.370Z,10.90
2022-12-23T10:02:52.425Z,10.90
2022-12-23T10:05:53.469Z,10.90
2022-12-23T10:08:40.119Z,10.90
2022-12-23T10:11:15.010Z,10.90
2022-12-23T10:13:46.101Z,11.00
2022-12-23T10:16:24.576Z,11.00
2022-12-23T10:19:00.342Z,10.90
2022-12-23T10:21:45.342Z,10.90
2022-12-23T10:24:25.902Z,10.90
2022-12-23T10:27:18.099Z,10.90
2022-12-23T10:29:44.841Z,11.00
2022-12-23T10:32:17.270Z,11.00
2022-12-23T10:35:21.490Z,11.00
2022-12-23T10:37:59.359Z,11.00
2022-12-23T10:40:39.066Z,11.00
2022-12-23T10:43:39.828Z,11.00
2022-12-23T10:46:19.064Z,11.00
2022-12-23T10:49:07.702Z,11.00
2022-12-23T10:51:49.679Z,10.90
2022-12-23T10:54:35.545Z,10.90
2022-12-23T10:57:05.204Z,10.90
2022-12-23T10:59:33.795Z,10.90
2022-12-23T11:02:56.296Z,10.90
2022-12-23T11:05:27.989Z,11.00
2022-12-23T11:07:55.171Z,11.00
2022-12-23T11:10:28.331Z,10.90
2022-12-23T11:12:55.238Z,10.90
2022-12-23T11:15:40.360Z,10.90
2022-12-23T11:18:19.527Z,10.90
2022-12-23T11:21:02.705Z,10.90
2022-12-23T11:23:32.654Z,10.90
2022-12-23T11:26:28.816Z,10.90
2022-12-23T11:29:04.150Z,10.90
2022-12-23T11:31:35.478Z,10.90
2022-12-23T11:34:07.004Z,11.00
2022-12-23T11:36:34.858Z,11.00
2022-12-23T11:39:14.765Z,11.00
2022-12-23T11:41:49.615Z,11.00
2022-12-23T11:44:26.039Z,11.00
2022-12-23T11:46:52.974Z,11.10
2022-12-23T11:49:22.644Z,11.10
2022-12-23T11:52:11.616Z,11.10
2022-12-23T11:54:39.490Z,11.10
2022-12-23T11:57:14.937Z,11.10
2022-12-23T11:59:45.139Z,11.20
2022-12-23T12:02:32.683Z,11.20
2022-12-23T12:05:18.341Z,11.20
2022-12-23T12:07:46.645Z,11.20
2022-12-23T12:10:25.353Z,11.20
2022-12-23T12:12:56.631Z,11.20
2022-12-23T12:15:46.638Z,11.20
2022-12-23T12:18:18.983Z,11.20
2022-12-23T12:20:48.815Z,11.20
2022-12-23T12:23:34.555Z,11.20
2022-12-23T12:26:06.085Z,11.10
2022-12-23T12:28:42.114Z,11.20
2022-12-23T12:31:35.710Z,11.20
2022-12-23T12:34:31.473Z,11.20
2022-12-23T12:37:07.961Z,11.20
2022-12-23T12:39:42.613Z,11.20
2022-12-23T12:42:21.061Z,11.10
2022-12-23T12:45:16.454Z,11.10
2022-12-23T12:48:16.294Z,10.90
2022-12-23T12:51:11.749Z,11.00
2022-12-23T12:54:05.659Z,10.90
2022-12-23T12:56:45.191Z,10.90
2022-12-23T12:59:20.773Z,10.90
2022-12-23T13:02:01.567Z,10.90
2022-12-23T13:04:43.711Z,10.90
2022-12-23T13:07:31.706Z,10.80
2022-12-23T13:10:33.044Z,10.90
2022-12-23T13:13:14.950Z,10.90
2022-12-23T13:15:56.163Z,10.80
2022-12-23T13:18:34.998Z,10.80
2022-12-23T13:21:28.240Z,10.70
2022-12-23T13:24:13.097Z,10.70
2022-12-23T13:27:01.395Z,10.70
2022-12-23T13:29:57.958Z,10.60
2022-12-23T13:32:48.478Z,10.60
2022-12-23T13:35:23.699Z,10.60
2022-12-23T13:38:01.747Z,10.60
2022-12-23T13:40:37.136Z,10.60
2022-12-23T13:43:11.440Z,10.60
2022-12-23T13:45:40.505Z,10.60
2022-12-23T13:48:27.662Z,10.60
2022-12-23T13:51:18.026Z,10.60
2022-12-23T13:54:04.124Z,10.60
2022-12-23T13:56:45.246Z,10.50
2022-12-23T13:59:14.331Z,10.50
2022-12-23T14:01:40.910Z,10.50
2022-12-23T14:04:37.089Z,10.50
2022-12-23T14:07:23.135Z,10.50
2022-12-23T14:09:56.191Z,10.50
2022-12-23T14:12:29.652Z,10.50
2022-12-23T14:15:31.511Z,10.40
2022-12-23T14:18:16.764Z,10.50
2022-12-23T14:20:43.322Z,10.40
2022-12-23T14:23:31.821Z,10.40
2022-12-23T14:26:17.239Z,10.50
2022-12-23T14:28:55.954Z,10.50
2022-12-23T14:31:41.120Z,10.40
2022-12-23T14:34:20.161Z,10.40
2022-12-23T14:37:20.540Z,10.40
2022-12-23T14:39:48.080Z,10.40
2022-12-23T14:42:33.534Z,10.50
2022-12-23T14:45:29.767Z,10.50
2022-12-23T14:47:56.567Z,10.40
2022-12-23T14:50:42.853Z,10.50
2022-12-23T14:53:23.766Z,10.40
2022-12-23T14:55:52.199Z,10.40
2022-12-23T14:58:20.234Z,10.40
2022-12-23T15:00:50.823Z,10.40
2022-12-23T15:03:20.298Z,10.40
2022-12-23T15:05:47.409Z,10.50
2022-12-23T15:08:31.794Z,10.50
2022-12-23T15:10:59.187Z,10.50
2022-12-23T15:13:28.969Z,10.50
2022-12-23T15:16:01.326Z,10.50
2022-12-23T15:18:29.134Z,10.50
2022-12-23T15:21:04.797Z,10.50
2022-12-23T15:23:33.252Z,10.50
2022-12-23T15:26:00.988Z,10.50
2022-12-23T15:28:39.625Z,10.50
2022-12-23T15:31:15.893Z,10.50
2022-12-23T15:34:04.084Z,10.50
2022-12-23T15:36:36.152Z,10.50
2022-12-23T15:39:13.950Z,10.50
2022-12-23T15:41:45.135Z,10.60
2022-12-23T15:44:18.061Z,10.60
2022-12-23T15:46:44.838Z,10.60
2022-12-23T15:49:12.132Z,10.70
2022-12-23T15:52:07.140Z,10.70
2022-12-23T15:54:44.504Z,10.70
2022-12-23T15:57:20.057Z,10.70
2022-12-23T15:59:46.978Z,10.70
2022-12-23T16:05:30.830Z,10.80
2022-12-23T16:08:16.273Z,10.90
2022-12-23T16:10:55.989Z,10.80
2022-12-23T16:13:22.952Z,10.80
2022-12-23T16:15:49.632Z,10.90
2022-12-23T16:18:25.613Z,10.90
2022-12-23T16:20:56.086Z,10.90
2022-12-23T16:23:23.993Z,10.90
2022-12-23T16:25:52.883Z,10.90
2022-12-23T16:28:29.121Z,10.90
2022-12-23T16:30:58.105Z,10.90
2022-12-23T16:33:35.792Z,11.00
2022-12-23T16:36:25.344Z,11.00
2022-12-23T16:39:11.615Z,11.00
2022-12-23T16:41:38.228Z,11.00
2022-12-23T16:44:04.914Z,11.00
2022-12-23T16:46:39.318Z,11.00
2022-12-23T16:49:10.940Z,11.00
2022-12-23T16:51:39.092Z,11.00
2022-12-23T16:54:05.762Z,11.00
2022-12-23T16:56:35.907Z,11.00
2022-12-23T16:59:03.232Z,11.00
2022-12-23T17:01:32.775Z,11.00
2022-12-23T17:03:59.635Z,11.00
2022-12-23T17:06:26.820Z,11.00
2022-12-23T17:08:53.809Z,11.00
2022-12-23T17:11:34.893Z,11.00
2022-12-23T17:14:05.613Z,11.00
2022-12-23T17:16:34.748Z,11.00
2022-12-23T17:19:01.689Z,11.00
2022-12-23T17:21:32.364Z,11.10
2022-12-23T17:24:22.284Z,11.10
2022-12-23T17:26:49.521Z,11.20
2022-12-23T17:29:16.591Z,11.20
2022-12-23T17:31:44.720Z,11.20
2022-12-23T17:34:20.062Z,11.20
2022-12-23T17:36:50.260Z,11.20
2022-12-23T17:39:18.199Z,11.20
2022-12-23T17:41:45.119Z,11.20
2022-12-23T17:44:14.957Z,11.20
2022-12-23T17:46:42.263Z,11.20
2022-12-23T17:49:09.167Z,11.20
2022-12-23T17:51:35.875Z,11.20
2022-12-23T17:54:04.485Z,11.20
2022-12-23T17:56:31.216Z,11.20
2022-12-23T17:58:58.293Z,11.20
2022-12-23T18:01:27.945Z,11.30
2022-12-23T18:03:55.981Z,11.30
2022-12-23T18:06:23.718Z,11.30
2022-12-23T18:08:50.535Z,11.30
2022-12-23T18:11:29.472Z,11.30
2022-12-23T18:13:56.280Z,11.30
2022-12-23T18:16:22.999Z,11.30
2022-12-23T18:18:49.762Z,11.30
2022-12-23T18:21:27.672Z,11.40
2022-12-23T18:23:57.418Z,11.40
2022-12-23T18:26:24.843Z,11.40
2022-12-23T18:28:52.677Z,11.40
2022-12-23T18:31:22.641Z,11.40
2022-12-23T18:33:49.469Z,11.40
2022-12-23T18:36:25.734Z,11.30
2022-12-23T18:38:53.333Z,11.30
2022-12-23T18:41:21.520Z,11.30
2022-12-23T18:43:48.477Z,11.30
2022-12-23T18:46:15.173Z,11.30
2022-12-23T18:48:41.904Z,11.30
2022-12-23T18:51:14.544Z,11.20
2022-12-23T18:53:43.377Z,11.20
2022-12-23T18:56:17.059Z,11.20
2022-12-23T18:58:43.687Z,11.20
2022-12-23T19:01:14.677Z,11.30
2022-12-23T19:03:41.994Z,11.30
2022-12-23T19:06:10.032Z,11.40
2022-12-23T19:08:37.563Z,11.50
2022-12-23T19:11:11.413Z,11.40
2022-12-23T19:13:38.052Z,11.40
2022-12-23T19:16:04.977Z,11.40
2022-12-23T19:18:31.689Z,11.50
2022-12-23T19:20:58.335Z,11.50
2022-12-23T19:23:26.367Z,11.50
2022-12-23T19:25:55.505Z,11.50
2022-12-23T19:28:23.026Z,11.50
2022-12-23T19:30:49.808Z,11.50
2022-12-23T19:33:16.619Z,11.50
2022-12-23T19:35:46.053Z,11.50
2022-12-23T19:38:12.841Z,11.50
2022-12-23T19:40:39.973Z,11.60
2022-12-23T19:43:07.144Z,11.60
2022-12-23T19:45:33.880Z,11.60
2022-12-23T19:48:00.586Z,11.60
2022-12-23T19:50:27.325Z,11.50
2022-12-23T19:52:56.151Z,11.50
2022-12-23T19:55:23.211Z,11.60
2022-12-23T19:57:49.839Z,11.60
2022-12-23T20:00:16.752Z,11.70
2022-12-23T20:02:43.504Z,11.60
2022-12-23T20:05:10.229Z,11.70
2022-12-23T20:07:37.172Z,11.70
2022-12-23T20:10:05.547Z,11.70
2022-12-23T20:12:32.780Z,11.70
2022-12-23T20:14:59.652Z,11.70
2022-12-23T20:17:26.304Z,11.80
2022-12-23T20:19:53.002Z,11.80
2022-12-23T20:22:19.688Z,11.70
2022-12-23T20:24:46.318Z,11.60
2022-12-23T20:27:15.788Z,11.50
2022-12-23T20:29:42.908Z,11.40
2022-12-23T20:32:09.680Z,11.30
2022-12-23T20:34:39.487Z,11.30
2022-12-23T20:37:07.454Z,11.30
2022-12-23T20:39:34.606Z,11.30
2022-12-23T20:42:01.267Z,11.30
2022-12-23T20:44:36.869Z,11.20
2022-12-23T20:47:06.080Z,11.10
2022-12-23T20:49:33.280Z,11.10
2022-12-23T20:51:59.999Z,11.00
2022-12-23T20:54:32.596Z,10.90
2022-12-23T20:57:00.842Z,10.80
2022-12-23T20:59:27.593Z,10.70
2022-12-23T21:01:54.799Z,10.60
2022-12-23T21:04:22.420Z,10.50
2022-12-23T21:06:49.184Z,10.50
2022-12-23T21:09:16.176Z,10.40
2022-12-23T21:11:46.476Z,10.40
2022-12-23T21:14:14.422Z,10.30
2022-12-23T21:16:41.850Z,10.30
2022-12-23T21:19:14.466Z,10.30
2022-12-23T21:21:41.104Z,10.30
2022-12-23T21:24:07.970Z,10.20
2022-12-23T21:26:35.061Z,10.20
2022-12-23T21:29:03.930Z,10.20
2022-12-23T21:31:32.768Z,10.20
2022-12-23T21:33:59.442Z,10.20
2022-12-23T21:36:30.865Z,10.10
2022-12-23T21:38:58.054Z,10.10
2022-12-23T21:41:28.054Z,10.10
2022-12-23T21:43:56.919Z,10.10
2022-12-23T21:46:24.375Z,10.10
2022-12-23T21:48:51.671Z,10.10
2022-12-23T21:51:22.128Z,10.20
2022-12-23T21:53:51.660Z,10.20
2022-12-23T21:56:25.389Z,10.30
2022-12-23T21:58:56.648Z,10.30
2022-12-23T22:01:24.164Z,10.30
2022-12-23T22:03:51.764Z,10.40
2022-12-23T22:06:21.455Z,10.40
2022-12-23T22:08:49.191Z,10.50
2022-12-23T22:11:19.201Z,10.50
2022-12-23T22:13:46.603Z,10.60
2022-12-23T22:16:15.980Z,10.60
2022-12-23T22:18:43.352Z,10.70
2022-12-23T22:21:13.036Z,10.70
2022-12-23T22:23:40.072Z,10.80
2022-12-23T22:26:08.226Z,10.80
2022-12-23T22:28:36.881Z,10.80
2022-12-23T22:31:08.248Z,10.80
2022-12-23T22:33:35.044Z,10.70
2022-12-23T22:36:01.747Z,10.70
2022-12-23T22:38:28.466Z,10.80
2022-12-23T22:40:55.136Z,10.90
2022-12-23T22:43:21.819Z,10.90
2022-12-23T22:45:58.116Z,10.80
2022-12-23T22:48:26.306Z,10.80
2022-12-23T22:51:01.788Z,10.80
2022-12-23T22:53:29.949Z,10.90
2022-12-23T22:56:00.864Z,10.80
2022-12-23T22:58:28.875Z,10.80
2022-12-23T23:00:56.217Z,10.80
2022-12-23T23:03:23.059Z,10.80
2022-12-23T23:06:04.755Z,10.80
2022-12-23T23:08:31.703Z,10.80
2022-12-23T23:11:00.536Z,10.80
2022-12-23T23:13:32.862Z,10.80
2022-12-23T23:16:00.602Z,10.80
2022-12-23T23:18:29.358Z,10.80
2022-12-23T23:20:56.115Z,10.80
2022-12-23T23:23:22.864Z,10.80
2022-12-23T23:25:49.499Z,10.80
2022-12-23T23:28:16.485Z,10.80
2022-12-23T23:30:43.180Z,10.80
2022-12-23T23:33:10.080Z,10.80
2022-12-23T23:35:37.041Z,10.80
2022-12-23T23:38:04.246Z,10.80
2022-12-23T23:40:30.919Z,10.70
2022-12-23T23:42:57.552Z,10.70
2022-12-23T23:45:24.187Z,10.70
2022-12-23T23:47:50.842Z,10.60
2022-12-23T23:50:17.632Z,10.70
2022-12-23T23:52:44.260Z,10.60
2022-12-23T23:55:11.317Z,10.60
2022-12-23T23:57:38.272Z,10.50
